Time;durP1;ratioP1;P1;durP2;ratioP2;P2;SDS_P1;SDS_P2;PMS_P1;PMS_P2;Temp;Humidity;BMP_temperature;BMP_pressure;BME280_temperature;BME280_humidity;BME280_pressure;Samples;Min_cycle;Max_cycle;Signal;HPM_P1;HPM_P2
2023/10/07 00:06:16;;;;;;;7.03;1.55;;;;;;;19.88;48.61;102196.72;16115257;19;130606;-60
2023/10/07 00:11:39;;;;;;;4.25;1.45;;;;;;;19.88;48.91;102207.84;16112779;19;130944;-59
2023/10/07 00:17:05;;;;;;;5.55;1.52;;;;;;;19.87;48.86;102206.13;16113135;19;129668;-59
2023/10/07 00:22:37;;;;;;;3.45;1.50;;;;;;;19.87;48.79;102221.97;16115587;19;129717;-60
2023/10/07 00:27:59;;;;;;;3.28;1.40;;;;;;;19.86;48.80;102225.81;16110228;19;129763;-60
2023/10/07 00:33:22;;;;;;;3.60;1.10;;;;;;;19.84;49.13;102206.56;16110571;19;129807;-60
2023/10/07 00:38:45;;;;;;;3.83;1.17;;;;;;;19.84;49.16;102201.03;16109886;19;129962;-60
2023/10/07 00:44:54;;;;;;;3.80;1.40;;;;;;;19.83;48.97;102185.44;16120241;19;131184;-59
2023/10/07 00:49:53;;;;;;;2.35;1.20;;;;;;;19.81;48.79;102173.72;16114951;19;130781;-58
2023/10/07 00:55:18;;;;;;;2.60;1.20;;;;;;;19.79;49.15;102181.41;16122683;19;130360;-59
2023/10/07 01:06:12;;;;;;;2.72;1.30;;;;;;;19.76;49.25;102182.69;16108857;19;129424;-60
2023/10/07 01:11:38;;;;;;;3.38;1.52;;;;;;;19.77;48.87;102189.13;16110808;19;129403;-58
2023/10/07 01:17:03;;;;;;;3.05;1.20;;;;;;;19.75;48.91;102175.47;16115825;19;130366;-60
2023/10/07 01:22:35;;;;;;;2.40;1.25;;;;;;;19.75;49.32;102175.47;16121998;19;129839;-59
2023/10/07 01:28:01;;;;;;;1.98;0.95;;;;;;;19.74;49.23;102178.44;16118783;19;130193;-59
2023/10/07 01:33:34;;;;;;;1.80;0.90;;;;;;;19.73;49.18;102172.06;16114679;19;130492;-59
2023/10/07 01:39:01;;;;;;;3.17;1.00;;;;;;;19.73;49.14;102176.75;16115467;19;130694;-58
2023/10/07 01:44:24;;;;;;;2.13;1.20;;;;;;;19.72;49.12;102175.91;16117628;19;129775;-59
2023/10/07 01:49:52;;;;;;;1.98;0.90;;;;;;;19.70;49.14;102172.50;16112332;19;130657;-59
2023/10/07 01:55:16;;;;;;;2.00;0.75;;;;;;;19.68;49.03;102178.28;16117108;19;129697;-59
2023/10/07 02:00:46;;;;;;;2.15;0.90;;;;;;;19.68;49.17;102155.22;16115536;19;130067;-59
2023/10/07 02:06:08;;;;;;;4.00;1.00;;;;;;;19.67;49.07;102159.91;16116288;19;129400;-60
2023/10/07 02:11:31;;;;;;;2.33;0.93;;;;;;;19.66;49.04;102163.78;16110241;19;130437;-60
2023/10/07 02:16:56;;;;;;;2.67;1.05;;;;;;;19.65;49.52;102162.06;16115535;19;129927;-59
2023/10/07 02:22:27;;;;;;;1.73;1.00;;;;;;;19.65;49.10;102164.84;16109480;19;130483;-59
2023/10/07 02:27:49;;;;;;;3.63;1.00;;;;;;;19.64;49.54;102156.72;16112068;19;130538;-59
2023/10/07 02:33:13;;;;;;;1.10;1.00;;;;;;;19.63;49.35;102147.56;16114934;19;131370;-59
2023/10/07 02:38:37;;;;;;;3.90;1.10;;;;;;;19.63;49.35;102155.88;16112096;19;130406;-59
2023/10/07 02:44:10;;;;;;;1.33;1.05;;;;;;;19.63;49.13;102160.59;16115813;19;130695;-59
2023/10/07 02:49:32;;;;;;;2.38;1.13;;;;;;;19.62;49.33;102173.59;16110114;19;129646;-59
2023/10/07 02:55:14;;;;;;;2.55;1.05;;;;;;;19.61;49.49;102169.13;16115024;19;133452;-60
2023/10/07 03:00:36;;;;;;;1.48;0.80;;;;;;;19.61;49.32;102177.47;16113857;19;129262;-59
2023/10/07 03:05:59;;;;;;;3.92;1.23;;;;;;;19.59;49.46;102171.28;16115609;19;131090;-60
2023/10/07 03:11:22;;;;;;;1.88;0.90;;;;;;;19.59;49.36;102182.38;16112679;19;129808;-60
2023/10/07 03:16:46;;;;;;;2.60;1.00;;;;;;;19.59;49.21;102162.94;16112296;19;130472;-60
2023/10/07 03:22:15;;;;;;;1.65;0.95;;;;;;;19.57;49.40;102161.47;16113214;19;131013;-60
2023/10/07 03:27:39;;;;;;;1.25;0.88;;;;;;;19.57;49.24;102159.53;16114397;19;129656;-60
2023/10/07 03:33:08;;;;;;;2.50;1.00;;;;;;;19.57;49.21;102139.25;16110928;19;132336;-62
2023/10/07 03:38:30;;;;;;;2.25;1.02;;;;;;;19.57;49.55;102161.47;16107244;19;129266;-59
2023/10/07 03:43:52;;;;;;;1.77;0.98;;;;;;;19.56;49.59;102152.31;16115724;19;130512;-60
2023/10/07 03:49:16;;;;;;;2.47;1.08;;;;;;;19.56;49.46;102152.31;16111137;19;132644;-60
2023/10/07 03:54:43;;;;;;;3.15;1.15;;;;;;;19.56;49.48;102145.88;16113786;19;130077;-60
2023/10/07 04:00:10;;;;;;;1.40;0.90;;;;;;;19.55;49.78;102141.41;16114411;19;129603;-61
2023/10/07 04:05:38;;;;;;;1.63;1.00;;;;;;;19.55;49.64;102124.75;16126690;19;130261;-60
2023/10/07 04:11:03;;;;;;;1.90;1.00;;;;;;;19.53;49.24;102139.69;16127410;19;129588;-58
2023/10/07 04:16:27;;;;;;;1.50;1.03;;;;;;;19.55;49.48;102138.63;16126950;19;129995;-59
2023/10/07 04:21:54;;;;;;;2.17;1.10;;;;;;;19.53;49.28;102138.88;16125851;19;133834;-61
2023/10/07 04:27:20;;;;;;;1.88;1.23;;;;;;;19.53;49.66;102141.66;16127117;19;129861;-60
2023/10/07 04:32:52;;;;;;;1.48;0.90;;;;;;;19.52;49.71;102140.78;16123184;19;130369;-60
2023/10/07 04:43:58;;;;;;;2.05;1.10;;;;;;;19.51;49.54;102124.34;16125634;19;131103;-61
2023/10/07 04:49:26;;;;;;;2.85;1.25;;;;;;;19.51;49.35;102127.13;16121948;19;129790;-60
2023/10/07 04:54:48;;;;;;;1.35;0.88;;;;;;;19.51;49.34;102130.75;16126412;19;130206;-60
2023/10/07 05:05:55;;;;;;;3.72;1.10;;;;;;;19.50;49.79;102128.19;16126152;19;130326;-60
2023/10/07 05:11:18;;;;;;;1.90;1.17;;;;;;;19.50;49.26;102133.75;16119364;19;129957;-60
2023/10/07 05:16:39;;;;;;;1.90;1.00;;;;;;;19.48;49.84;102131.22;16122469;19;129708;-61
2023/10/07 05:22:19;;;;;;;2.17;1.08;;;;;;;19.50;49.80;102155.97;16123787;19;129950;-61
2023/10/07 05:27:41;;;;;;;1.45;0.90;;;;;;;19.49;49.60;102140.38;16121121;19;131293;-67
2023/10/07 05:33:08;;;;;;;1.70;1.33;;;;;;;19.49;49.89;102165.34;16122689;19;129401;-61
2023/10/07 05:38:30;;;;;;;2.03;1.00;;;;;;;19.48;49.43;102171.97;16121122;19;129502;-65
2023/10/07 05:43:52;;;;;;;1.08;0.90;;;;;;;19.48;49.80;102158.09;16125540;19;129838;-64
2023/10/07 05:49:14;;;;;;;1.58;0.85;;;;;;;19.47;49.37;102167.50;16127218;19;130215;-61
2023/10/07 05:54:36;;;;;;;2.42;1.13;;;;;;;19.48;49.37;102169.19;16123195;19;129845;-61
2023/10/07 05:59:58;;;;;;;2.30;1.05;;;;;;;19.46;49.42;102160.25;16127153;19;129727;-63
2023/10/07 06:05:27;;;;;;;1.67;1.08;;;;;;;19.46;49.43;102160.25;16125650;19;130401;-60
2023/10/07 06:10:52;;;;;;;5.00;1.30;;;;;;;19.45;49.62;102151.06;16124562;19;129378;-60
2023/10/07 06:16:14;;;;;;;2.97;1.30;;;;;;;19.45;49.77;102152.97;16125956;19;132637;-61
2023/10/07 06:21:40;;;;;;;2.55;1.17;;;;;;;19.44;49.46;102154.91;16123588;19;130472;-63
2023/10/07 06:27:06;;;;;;;2.53;1.20;;;;;;;19.45;49.83;102152.97;16116832;19;130866;-62
2023/10/07 06:32:43;;;;;;;1.85;1.00;;;;;;;19.44;49.88;102159.63;16115688;19;130632;-61
2023/10/07 06:38:06;;;;;;;4.38;1.08;;;;;;;19.43;49.68;102166.25;16115740;19;130580;-62
2023/10/07 06:43:29;;;;;;;1.95;1.10;;;;;;;19.44;49.90;102179.91;16114541;19;129573;-62
2023/10/07 06:48:52;;;;;;;2.38;1.17;;;;;;;19.43;49.63;102180.13;16115297;19;130396;-62
2023/10/07 06:54:14;;;;;;;3.63;1.08;;;;;;;19.43;49.39;102188.47;16111683;19;130175;-61
2023/10/07 06:59:45;;;;;;;2.35;1.27;;;;;;;19.43;49.55;102210.66;16112144;19;129734;-62
2023/10/07 07:05:13;;;;;;;2.63;1.20;;;;;;;19.42;49.77;102209.78;16115338;19;130428;-62
2023/10/07 07:10:35;;;;;;;2.63;1.30;;;;;;;19.43;49.66;102205.09;16109672;19;133748;-61
2023/10/07 07:15:58;;;;;;;3.22;1.58;;;;;;;19.44;49.40;102206.81;16112915;19;130190;-61
2023/10/07 07:26:51;;;;;;;5.97;1.83;;;;;;;19.45;49.82;102192.72;16107525;19;129715;-56
2023/10/07 07:32:17;;;;;;;;;;;;;;;19.46;49.60;102193.53;16109618;19;131108;-53
2023/10/07 07:37:40;;;;;;;10.38;1.98;;;;;;;19.53;49.68;102199.94;16118818;19;130087;-54
2023/10/07 07:43:07;;;;;;;3.03;1.83;;;;;;;19.56;49.25;102210.59;16121525;19;129728;-57
2023/10/07 07:48:29;;;;;;;5.80;1.95;;;;;;;19.67;49.47;102231.25;16118241;19;130336;-56
2023/10/07 07:53:52;;;;;;;6.50;2.17;;;;;;;19.87;49.21;102227.50;16121722;19;129708;-51
2023/10/07 07:59:14;;;;;;;6.07;2.38;;;;;;;19.98;48.80;102224.84;16124887;19;130709;-57
2023/10/07 08:04:43;;;;;;;5.75;2.15;;;;;;;20.07;48.41;102221.84;16116835;19;130819;-52
2023/10/07 08:10:10;;;;;;;6.05;2.20;;;;;;;20.17;48.45;102227.78;16115857;19;130538;-49
2023/10/07 08:15:39;;;;;;;5.63;2.65;;;;;;;20.20;48.56;102220.91;16116560;19;131029;-47
2023/10/07 08:21:07;;;;;;;8.88;2.40;;;;;;;20.18;48.58;102210.03;16118410;19;130117;-51
2023/10/07 08:26:29;;;;;;;6.38;2.28;;;;;;;20.20;48.60;102227.28;16117360;19;130838;-56
2023/10/07 08:31:55;;;;;;;13.05;2.60;;;;;;;20.20;48.66;102220.91;16117942;19;130794;-55
2023/10/07 08:37:18;;;;;;;9.30;2.90;;;;;;;20.21;48.85;102212.31;16113615;19;130320;-57
2023/10/07 08:42:47;;;;;;;8.23;2.38;;;;;;;20.20;48.59;102210.63;16116966;19;130090;-57
2023/10/07 08:48:19;;;;;;;8.57;3.08;;;;;;;20.18;48.55;102223.91;16114129;19;130699;-57
2023/10/07 08:53:41;;;;;;;7.63;2.53;;;;;;;20.18;48.90;102217.50;16119163;19;129599;-56
2023/10/07 08:59:07;;;;;;;14.07;3.20;;;;;;;20.16;48.59;102209.38;16123227;19;129615;-54
2023/10/07 09:04:33;;;;;;;10.60;3.10;;;;;;;20.15;48.77;102204.91;16115217;19;130494;-56
2023/10/07 09:10:08;;;;;;;8.02;2.90;;;;;;;20.15;48.63;102224.34;16118636;19;130438;-58
2023/10/07 09:15:35;;;;;;;9.50;2.65;;;;;;;20.15;48.49;102221.56;16116050;19;130366;-58
2023/10/07 09:20:57;;;;;;;7.95;2.80;;;;;;;20.13;48.48;102212.63;16116825;19;130236;-58
2023/10/07 09:26:30;;;;;;;8.38;2.90;;;;;;;20.12;48.48;102216.47;16119010;19;129616;-58
2023/10/07 09:32:04;;;;;;;8.07;2.45;;;;;;;20.12;48.91;102208.97;16121810;19;130275;-58
2023/10/07 09:37:32;;;;;;;5.93;2.83;;;;;;;20.12;48.94;102213.69;16117996;19;130556;-58
2023/10/07 09:42:58;;;;;;;9.43;2.80;;;;;;;20.11;48.95;102207.28;16120380;19;130503;-58
2023/10/07 09:48:42;;;;;;;5.38;2.47;;;;;;;20.11;48.91;102200.88;16116285;19;129943;-57
2023/10/07 09:54:10;;;;;;;8.38;2.75;;;;;;;20.11;48.43;102189.75;16116580;19;129545;-59
2023/10/07 10:00:37;;;;;;;8.55;3.03;;;;;;;20.10;48.53;102194.47;16114070;19;131639;-57
2023/10/07 10:06:18;;;;;;;11.73;3.47;;;;;;;20.09;48.74;102194.69;16115558;19;130605;-56
2023/10/07 10:11:55;;;;;;;7.18;2.85;;;;;;;20.10;48.74;102204.72;16113435;19;131063;-54
2023/10/07 10:17:22;;;;;;;8.88;2.80;;;;;;;20.08;48.97;102207.72;16114433;19;129311;-58
2023/10/07 10:23:00;;;;;;;5.75;2.45;;;;;;;20.10;48.44;102221.38;16112940;19;130381;-57
2023/10/07 10:28:29;;;;;;;7.47;2.70;;;;;;;20.11;48.50;102200.88;16112105;19;130716;-58
2023/10/07 10:33:52;;;;;;;7.95;3.00;;;;;;;20.11;48.81;102195.31;16108248;19;130686;-57
2023/10/07 10:39:25;;;;;;;7.90;2.92;;;;;;;20.12;49.11;102203.41;16112033;19;129747;-58
2023/10/07 10:44:53;;;;;;;5.15;2.70;;;;;;;20.14;48.96;102197.66;16109148;19;129924;-57
2023/10/07 10:50:17;;;;;;;7.87;3.00;;;;;;;20.14;48.77;102200.44;16107345;19;131911;-58
2023/10/07 10:55:39;;;;;;;6.15;2.58;;;;;;;20.15;49.03;102207.69;16112040;19;131239;-58
2023/10/07 11:01:01;;;;;;;4.22;2.50;;;;;;;20.17;49.01;102199.97;16109560;19;130261;-56
2023/10/07 11:06:23;;;;;;;8.10;2.70;;;;;;;20.16;49.03;102214.94;16111576;19;129621;-58
2023/10/07 11:11:48;;;;;;;5.05;2.95;;;;;;;20.18;49.12;102220.28;16106293;19;131303;-57
2023/10/07 11:17:12;;;;;;;8.63;3.30;;;;;;;20.18;49.08;102212.81;16112843;19;130646;-59
2023/10/07 11:22:38;;;;;;;10.75;3.05;;;;;;;20.17;48.95;102221.34;16113299;19;129498;-59
2023/10/07 11:28:09;;;;;;;12.18;3.65;;;;;;;20.14;48.84;102217.09;16109183;19;130778;-59
2023/10/07 11:33:31;;;;;;;7.72;3.38;;;;;;;20.10;49.34;102216.69;16110476;19;130917;-58
2023/10/07 11:38:53;;;;;;;7.32;3.13;;;;;;;20.09;49.06;102214.13;16107529;19;129547;-58
2023/10/07 11:44:16;;;;;;;6.82;2.80;;;;;;;20.07;49.09;102211.59;16106352;19;130633;-58
2023/10/07 11:49:38;;;;;;;8.68;3.42;;;;;;;20.06;49.56;102209.03;16107833;19;132206;-58
2023/10/07 11:55:00;;;;;;;8.80;2.78;;;;;;;20.05;49.07;102196.22;16108459;19;131214;-56
2023/10/07 12:00:23;;;;;;;8.10;2.80;;;;;;;20.05;49.59;102193.44;16107982;19;130746;-58
2023/10/07 12:05:46;;;;;;;7.20;3.20;;;;;;;20.04;49.31;102195.38;16105996;19;130058;-58
2023/10/07 12:11:08;;;;;;;8.02;3.38;;;;;;;20.03;49.70;102193.66;16103680;19;129952;-58
2023/10/07 12:16:33;;;;;;;7.18;3.38;;;;;;;20.03;49.56;102193.66;16105724;19;130554;-57
2023/10/07 12:21:56;;;;;;;9.18;3.25;;;;;;;20.04;49.71;102191.75;16114701;19;131811;-57
2023/10/07 12:27:18;;;;;;;8.13;3.22;;;;;;;20.02;49.57;102191.94;16121563;19;130237;-55
2023/10/07 12:32:44;;;;;;;10.07;2.95;;;;;;;20.04;49.61;102180.63;16125554;19;129988;-58
2023/10/07 12:38:08;;;;;;;7.80;3.40;;;;;;;20.03;49.48;102184.50;16113616;19;132357;-57
2023/10/07 12:43:31;;;;;;;10.85;2.90;;;;;;;20.03;49.83;102198.38;16115471;19;131465;-57
2023/10/07 12:48:53;;;;;;;7.45;2.95;;;;;;;20.02;49.65;102191.13;16120351;19;130477;-56
2023/10/07 12:54:17;;;;;;;5.60;2.90;;;;;;;20.01;49.54;102183.84;16120495;19;130655;-57
2023/10/07 12:59:39;;;;;;;9.60;3.33;;;;;;;20.01;49.85;102198.59;16125102;19;130209;-56
2023/10/07 13:05:01;;;;;;;5.85;2.83;;;;;;;20.01;49.87;102197.75;16125384;19;131510;-56
2023/10/07 13:10:23;;;;;;;7.68;3.15;;;;;;;20.01;49.63;102186.63;16123877;19;130666;-57
2023/10/07 13:15:45;;;;;;;13.80;3.42;;;;;;;20.00;50.09;102180.22;16115114;19;131612;-55
2023/10/07 13:21:13;;;;;;;6.50;2.90;;;;;;;19.99;50.15;102179.38;16119601;19;130772;-57
2023/10/07 13:26:35;;;;;;;9.00;3.20;;;;;;;19.99;49.63;102179.38;16118668;19;131588;-56
2023/10/07 13:31:58;;;;;;;5.35;2.60;;;;;;;19.98;49.88;102174.84;16116575;19;131189;-56
2023/10/07 13:37:20;;;;;;;8.75;3.25;;;;;;;19.98;49.91;102180.41;16116378;19;129660;-57
2023/10/07 13:42:47;;;;;;;10.20;2.88;;;;;;;19.99;50.00;102184.06;16111074;19;129523;-57
2023/10/07 13:48:10;;;;;;;7.40;2.72;;;;;;;19.98;50.05;102169.31;16111646;19;131641;-57
2023/10/07 13:54:21;;;;;;;4.95;2.67;;;;;;;19.98;50.10;102163.75;16116242;19;129900;-57
2023/10/07 13:59:36;;;;;;;6.82;2.92;;;;;;;19.97;50.30;102155.66;16118471;19;132749;-57
2023/10/07 14:07:34;;;;;;;6.53;3.05;;;;;;;20.03;51.35;102177.00;16176822;19;132173;-57
2023/10/07 14:12:56;;;;;;;12.38;3.72;;;;;;;20.10;51.19;102169.47;16180020;19;133219;-52
2023/10/07 14:18:21;;;;;;;11.70;4.22;;;;;;;20.19;51.46;102186.69;16181188;19;130026;-57
2023/10/07 14:23:43;;;;;;;15.38;4.10;;;;;;;20.26;51.58;102187.50;16174116;19;136421;-55
2023/10/07 14:29:05;;;;;;;15.98;3.92;;;;;;;20.33;51.05;102179.09;16187974;19;130436;-55
2023/10/07 14:34:28;;;;;;;8.88;3.50;;;;;;;20.38;50.90;102167.31;16189483;19;129761;-58
2023/10/07 14:39:51;;;;;;;16.52;3.88;;;;;;;20.42;50.73;102165.78;16194234;19;131836;-57
2023/10/07 14:45:19;;;;;;;12.95;3.47;;;;;;;20.44;50.76;102141.34;16191535;19;129739;-57
2023/10/07 14:50:41;;;;;;;10.35;4.18;;;;;;;20.45;50.78;102145.84;16187358;19;130511;-58
2023/10/07 14:56:15;;;;;;;13.27;4.15;;;;;;;20.49;50.65;102122.06;16190696;19;130749;-57
2023/10/07 15:01:38;;;;;;;12.73;4.38;;;;;;;20.49;50.59;102127.63;16193179;19;130373;-61
2023/10/07 15:07:06;;;;;;;11.67;4.10;;;;;;;20.51;50.42;102117.13;16188499;19;129663;-58
2023/10/07 15:12:28;;;;;;;9.23;4.18;;;;;;;20.52;50.68;102113.28;16191125;19;129674;-60
2023/10/07 15:17:51;;;;;;;10.68;4.28;;;;;;;20.55;50.41;102115.59;16133886;19;130537;-58
2023/10/07 15:23:13;;;;;;;13.85;4.75;;;;;;;20.58;50.40;102101.22;16127785;19;130859;-58
2023/10/07 15:28:35;;;;;;;9.93;4.18;;;;;;;20.60;50.27;102121.31;16121965;19;131307;-54
2023/10/07 15:34:06;;;;;;;12.93;4.93;;;;;;;20.64;50.27;102127.25;16124191;19;131039;-58
2023/10/07 15:39:31;;;;;;;9.68;4.60;;;;;;;20.64;50.22;102132.81;16123044;19;130877;-55
2023/10/07 15:44:57;;;;;;;8.10;3.42;;;;;;;20.65;50.38;102150.38;16112441;19;129811;-55
2023/10/07 15:50:18;;;;;;;11.02;4.55;;;;;;;20.64;50.00;102145.88;16115256;19;130982;-55
2023/10/07 15:55:41;;;;;;;9.68;4.50;;;;;;;20.62;49.88;102143.31;16121075;19;130590;-57
2023/10/07 16:01:04;;;;;;;11.80;4.40;;;;;;;20.58;50.11;102134.59;16126006;19;131450;-57
2023/10/07 16:06:26;;;;;;;18.00;4.78;;;;;;;20.55;50.30;102135.06;16119975;19;129627;-57
2023/10/07 16:11:49;;;;;;;11.95;4.47;;;;;;;20.52;50.18;102135.53;16119559;19;129960;-56
2023/10/07 16:17:11;;;;;;;13.73;4.50;;;;;;;20.51;50.28;102141.28;16118042;19;131851;-57
2023/10/07 16:22:36;;;;;;;54.17;22.05;;;;;;;20.49;50.34;102141.53;16117774;19;130714;-57
2023/10/07 16:27:58;;;;;;;79.13;27.98;;;;;;;20.49;50.54;102135.13;16110241;19;130458;-59
2023/10/07 16:33:20;;;;;;;65.15;26.25;;;;;;;20.45;50.78;102140.28;16116765;19;129650;-59
2023/10/07 16:38:44;;;;;;;62.28;23.80;;;;;;;20.41;50.47;102144.63;16115309;19;130675;-58
2023/10/07 16:44:06;;;;;;;68.38;25.88;;;;;;;20.38;50.70;102139.50;16116658;19;131275;-59
2023/10/07 16:49:28;;;;;;;60.13;24.10;;;;;;;20.35;50.49;102137.19;16115896;19;129357;-57
2023/10/07 16:54:50;;;;;;;63.85;24.13;;;;;;;20.34;50.45;102135.47;16116278;19;131057;-58
2023/10/07 17:00:15;;;;;;;62.63;23.50;;;;;;;20.33;50.80;102142.09;16114054;19;130522;-56
2023/10/07 17:05:38;;;;;;;56.90;21.85;;;;;;;20.28;50.89;102124.22;16114351;19;130208;-54
2023/10/07 17:11:00;;;;;;;52.70;20.88;;;;;;;20.26;50.60;102115.25;16116038;19;131124;-54
2023/10/07 17:16:22;;;;;;;59.15;19.63;;;;;;;20.24;50.95;102142.41;16123592;19;130168;-55
2023/10/07 17:21:46;;;;;;;45.08;17.50;;;;;;;20.23;50.67;102126.81;16120389;19;130135;-56
2023/10/07 17:27:09;;;;;;;41.90;17.65;;;;;;;20.22;50.96;102125.13;16111601;19;129813;-53
2023/10/07 17:32:31;;;;;;;37.33;15.30;;;;;;;20.21;51.05;102133.69;16109829;19;129295;-55
2023/10/07 17:37:53;;;;;;;45.97;17.35;;;;;;;20.18;50.91;102146.13;16107915;19;130660;-53
2023/10/07 17:43:16;;;;;;;37.85;12.77;;;;;;;20.18;51.30;102171.13;16109087;19;131866;-59
2023/10/07 17:48:37;;;;;;;37.75;11.70;;;;;;;20.22;51.50;102180.69;16111087;19;129371;-59
2023/10/07 17:53:59;;;;;;;34.28;11.27;;;;;;;20.24;51.76;102184.09;16106907;19;129732;-53
2023/10/07 17:59:21;;;;;;;26.98;9.98;;;;;;;20.29;51.76;102188.97;16111879;19;129478;-56
2023/10/07 18:04:47;;;;;;;30.45;10.38;;;;;;;20.33;51.35;102201.34;16109803;19;128824;-55
2023/10/07 18:10:09;;;;;;;25.33;9.20;;;;;;;20.34;51.63;102199.41;16104488;19;131441;-55
2023/10/07 18:15:32;;;;;;;28.45;9.95;;;;;;;20.35;51.25;102193.63;16112067;19;129353;-55
2023/10/07 18:20:55;;;;;;;21.48;9.52;;;;;;;20.37;51.53;102176.72;16111037;19;133067;-55
2023/10/07 18:26:17;;;;;;;20.23;8.43;;;;;;;20.39;51.71;102155.09;16114085;19;130154;-57
2023/10/07 18:31:39;;;;;;;24.33;9.15;;;;;;;20.38;51.61;102165.34;16107087;19;130090;-51
2023/10/07 18:37:01;;;;;;;25.50;8.38;;;;;;;20.40;51.75;102176.28;16110537;19;130686;-53
2023/10/07 18:42:23;;;;;;;19.20;8.23;;;;;;;20.41;51.31;102164.91;16112659;19;131036;-56
2023/10/07 18:47:45;;;;;;;24.83;8.05;;;;;;;20.44;51.52;102169.16;16108100;19;130388;-57
2023/10/07 18:53:07;;;;;;;20.45;8.00;;;;;;;20.44;51.40;102169.16;16118224;19;131891;-58
2023/10/07 18:58:30;;;;;;;22.70;7.68;;;;;;;20.47;51.62;102174.25;16123491;19;130421;-56
2023/10/07 19:03:51;;;;;;;23.80;8.05;;;;;;;20.46;51.34;102175.34;16121750;19;130422;-58
2023/10/07 19:09:13;;;;;;;18.15;7.72;;;;;;;20.47;51.49;102179.81;16125836;19;130568;-56
2023/10/07 19:14:35;;;;;;;18.17;7.60;;;;;;;20.48;51.78;102186.25;16120817;19;130300;-55
2023/10/07 19:19:57;;;;;;;18.48;7.90;;;;;;;20.47;51.29;102177.03;16121159;19;129927;-57
2023/10/07 19:25:19;;;;;;;28.77;8.00;;;;;;;20.46;51.40;102183.69;16115228;19;130144;-58
2023/10/07 19:30:43;;;;;;;24.27;7.60;;;;;;;20.47;51.58;102184.53;16120884;19;131116;-57
2023/10/07 19:36:06;;;;;;;20.85;6.95;;;;;;;20.48;51.66;102181.53;16118193;19;130770;-58
2023/10/07 19:41:28;;;;;;;27.58;8.02;;;;;;;20.49;51.95;102180.44;16114716;19;129818;-56
2023/10/07 19:46:50;;;;;;;18.73;6.65;;;;;;;20.50;51.87;102182.16;16123916;19;129449;-55
2023/10/07 19:52:13;;;;;;;27.23;6.88;;;;;;;20.53;51.82;102183.63;16121680;19;130343;-57
2023/10/07 19:57:35;;;;;;;22.73;5.82;;;;;;;20.55;51.92;102176.78;16119010;19;129670;-55
2023/10/07 20:02:57;;;;;;;30.75;7.40;;;;;;;20.57;51.56;102194.03;16116386;19;129587;-56
2023/10/07 20:08:19;;;;;;;30.42;7.22;;;;;;;20.59;51.75;102191.91;16120421;19;130423;-58
2023/10/07 20:13:41;;;;;;;29.88;6.65;;;;;;;20.62;51.43;102189.75;16117890;19;129621;-58
2023/10/07 20:19:05;;;;;;;25.42;6.78;;;;;;;20.59;51.51;102191.06;16114587;19;129798;-58
2023/10/07 20:24:27;;;;;;;37.97;7.40;;;;;;;20.61;51.64;102200.03;16117284;19;130948;-58
2023/10/07 20:29:49;;;;;;;45.40;8.18;;;;;;;20.60;51.88;102209.44;16117874;19;130583;-56
2023/10/07 20:35:11;;;;;;;47.95;8.15;;;;;;;20.58;51.66;102212.44;16123737;19;130006;-58
2023/10/07 20:40:33;;;;;;;45.25;7.95;;;;;;;20.57;51.98;102221.00;16116433;19;130306;-57
2023/10/07 20:45:57;;;;;;;33.50;7.03;;;;;;;20.56;52.44;102225.72;16114410;19;129315;-57
2023/10/07 20:51:20;;;;;;;36.22;7.40;;;;;;;20.57;52.58;102237.69;16112323;19;130424;-57
2023/10/07 20:56:43;;;;;;;34.10;7.00;;;;;;;20.56;52.41;102239.59;16113180;19;130496;-59
2023/10/07 21:02:05;;;;;;;34.03;6.97;;;;;;;20.53;52.68;102254.00;16114436;19;129847;-58
2023/10/07 21:07:28;;;;;;;36.25;6.65;;;;;;;20.50;52.81;102260.00;16115644;19;129279;-59
2023/10/07 21:12:50;;;;;;;34.75;8.13;;;;;;;20.47;52.50;102292.97;16116321;19;130438;-59
2023/10/07 21:18:12;;;;;;;33.97;7.20;;;;;;;20.45;52.29;102295.94;16116513;19;130214;-61
2023/10/07 21:23:35;;;;;;;33.55;7.25;;;;;;;20.42;52.58;102296.41;16115388;19;130396;-60
2023/10/07 21:28:57;;;;;;;36.92;8.68;;;;;;;20.41;52.46;102283.59;16103347;19;129392;-60
2023/10/07 21:34:19;;;;;;;27.42;7.25;;;;;;;20.39;52.59;102291.31;16109851;19;131017;-59
2023/10/07 21:39:41;;;;;;;33.92;6.90;;;;;;;20.36;52.49;102275.06;16110062;19;129806;-59
2023/10/07 21:45:05;;;;;;;28.60;7.22;;;;;;;20.35;52.53;102267.81;16110590;19;129841;-60
2023/10/07 21:50:27;;;;;;;34.28;8.25;;;;;;;20.33;52.65;102272.72;16113562;19;129447;-59
2023/10/07 21:55:49;;;;;;;25.77;6.75;;;;;;;20.30;52.21;102262.94;16110961;19;130235;-59
2023/10/07 22:01:15;;;;;;;29.48;7.35;;;;;;;20.27;52.20;102267.03;16116024;19;129734;-60
2023/10/07 22:06:38;;;;;;;26.67;7.10;;;;;;;20.24;52.51;102261.91;16111068;19;129821;-60
2023/10/07 22:12:03;;;;;;;20.95;6.20;;;;;;;20.22;52.33;102258.50;16112401;19;129893;-59
2023/10/07 22:17:25;;;;;;;;;;;;;;;20.19;52.16;102258.09;16110617;19;130635;-59
2023/10/07 22:22:47;;;;;;;21.13;6.45;;;;;;;20.21;52.38;102267.91;16111906;19;130484;-60
2023/10/07 22:28:12;;;;;;;23.35;6.25;;;;;;;20.19;52.33;102278.38;16122947;19;129874;-60
2023/10/07 22:33:35;;;;;;;22.23;5.82;;;;;;;20.17;52.25;102277.78;16122186;19;129468;-60
2023/10/07 22:39:00;;;;;;;23.77;6.50;;;;;;;20.16;52.04;102273.28;16125433;19;129793;-60
2023/10/07 22:44:22;;;;;;;;;;;;;;;20.12;52.14;102281.19;16126355;19;129660;-60
2023/10/07 22:49:45;;;;;;;15.73;5.47;;;;;;;20.14;52.44;102281.00;16123027;19;129753;-62
2023/10/07 22:55:14;;;;;;;23.27;6.30;;;;;;;20.13;52.06;102287.63;16125314;19;129511;-61
2023/10/07 23:00:44;;;;;;;17.02;5.38;;;;;;;20.12;52.24;102281.19;16124991;19;129550;-61
2023/10/07 23:06:37;;;;;;;16.42;5.00;;;;;;;20.11;52.09;102273.09;16121294;19;131205;-60
2023/10/07 23:12:03;;;;;;;18.30;5.40;;;;;;;20.10;52.12;102282.50;16127207;19;130626;-60
2023/10/07 23:17:30;;;;;;;19.92;5.95;;;;;;;20.09;52.42;102280.81;16125873;19;130457;-60
2023/10/07 23:22:56;;;;;;;13.68;5.07;;;;;;;20.08;51.97;102284.66;16123628;19;129224;-60
2023/10/07 23:28:32;;;;;;;14.37;5.17;;;;;;;20.07;51.95;102272.72;16120351;19;131593;-60
2023/10/07 23:33:54;;;;;;;13.88;5.72;;;;;;;20.06;51.87;102287.66;16118904;19;131007;-60
2023/10/07 23:39:20;;;;;;;15.13;5.50;;;;;;;20.04;51.86;102275.91;16121653;19;131025;-60
2023/10/07 23:44:42;;;;;;;16.85;5.35;;;;;;;20.05;52.15;102290.69;16118991;19;130733;-60
2023/10/07 23:50:05;;;;;;;15.98;5.15;;;;;;;20.04;51.85;102300.91;16120561;19;130785;-60
2023/10/07 23:55:28;;;;;;;10.27;4.80;;;;;;;20.04;52.31;102294.53;16120307;19;130195;-62
